Time;durP1;ratioP1;P1;durP2;ratioP2;P2;SDS_P1;SDS_P2;PMS_P1;PMS_P2;Temp;Humidity;BMP_temperature;BMP_pressure;BME280_temperature;BME280_humidity;BME280_pressure;Samples;Min_cycle;Max_cycle;Signal;HPM_P1;HPM_P2
2021/03/27 14:56:05;;;;;;;14.18;11.73;;;;;;;17.66;26.56;101116.53;1815576;77;28447;-68
2021/03/27 14:58:42;;;;;;;14.20;10.88;;;;;;;17.55;26.72;101124.09;1788646;79;20929;-64
2021/03/27 15:01:21;;;;;;;14.98;10.55;;;;;;;17.47;26.33;101124.72;1788711;80;21296;-70
2021/03/27 15:04:00;;;;;;;16.27;11.50;;;;;;;17.37;26.19;101127.58;1788357;80;20999;-66
2021/03/27 15:06:34;;;;;;;16.37;11.80;;;;;;;17.23;26.65;101124.69;1812375;78;21087;-69
2021/03/27 15:09:22;;;;;;;16.93;12.35;;;;;;;17.17;26.78;101124.48;1820818;78;21001;-64
2021/03/27 15:12:19;;;;;;;15.30;11.48;;;;;;;17.11;26.99;101127.03;1819361;78;20989;-63
2021/03/27 15:15:05;;;;;;;13.72;11.38;;;;;;;17.05;26.68;101124.07;1820802;78;21064;-66
2021/03/27 15:17:40;;;;;;;17.75;11.48;;;;;;;17.01;26.75;101125.19;1732322;81;21539;-64
2021/03/27 15:20:33;;;;;;;21.07;11.18;;;;;;;16.99;26.89;101124.67;1723810;82;21163;-65
2021/03/27 15:23:44;;;;;;;14.78;11.18;;;;;;;16.94;26.76;101130.78;1723865;83;21158;-66
2021/03/27 15:30:11;;;;;;;14.15;10.72;;;;;;;16.80;27.56;101134.73;1723880;83;21199;-66
2021/03/27 15:32:57;;;;;;;19.60;11.28;;;;;;;16.77;27.14;101139.42;1753868;81;21195;-64
2021/03/27 15:35:51;;;;;;;18.80;12.07;;;;;;;16.71;27.55;101133.15;1753936;81;21099;-64
2021/03/27 15:38:52;;;;;;;18.45;12.07;;;;;;;16.68;28.31;101135.08;1754110;81;21483;-65
2021/03/27 15:41:41;;;;;;;20.62;12.58;;;;;;;16.65;29.40;101132.08;1753989;81;20993;-64
2021/03/27 15:44:31;;;;;;;18.67;14.15;;;;;;;16.61;29.20;101133.20;1753834;81;21474;-62
2021/03/27 15:47:32;;;;;;;21.62;13.62;;;;;;;16.52;29.09;101140.40;1724797;81;21028;-62
2021/03/27 15:50:09;;;;;;;25.40;14.45;;;;;;;16.39;29.24;101140.50;1723631;83;21616;-59
2021/03/27 15:53:09;;;;;;;18.92;14.10;;;;;;;16.28;29.34;101141.67;1722219;83;21041;-60
2021/03/27 15:56:01;;;;;;;26.30;13.25;;;;;;;16.18;29.36;101148.05;1698928;83;21165;-64
2021/03/27 15:59:00;;;;;;;25.97;13.18;;;;;;;16.08;29.57;101144.80;1716306;83;21347;-62
2021/03/27 16:01:34;;;;;;;23.05;12.03;;;;;;;15.97;29.81;101147.33;1712420;83;21019;-63
2021/03/27 16:04:25;;;;;;;16.45;10.98;;;;;;;15.87;30.16;101152.87;1717876;82;20959;-65
2021/03/27 16:07:02;;;;;;;21.30;10.90;;;;;;;15.78;29.90;101152.62;1722630;82;21097;-63
2021/03/27 16:09:52;;;;;;;18.02;9.70;;;;;;;15.67;30.13;101155.69;1782659;80;21607;-64
2021/03/27 16:12:55;;;;;;;14.18;10.10;;;;;;;15.57;29.79;101161.44;1792233;79;20942;-63
2021/03/27 16:15:40;;;;;;;19.25;11.43;;;;;;;15.47;29.81;101160.64;1716356;82;21057;-67
2021/03/27 16:18:58;;;;;;;24.12;14.93;;;;;;;15.37;30.05;101166.16;1783894;79;21024;-66
2021/03/27 16:21:44;;;;;;;18.57;13.40;;;;;;;15.32;29.94;101168.35;1728201;79;21392;-65
2021/03/27 16:24:42;;;;;;;16.77;11.35;;;;;;;15.27;30.34;101165.62;1806967;79;21166;-63
2021/03/27 16:27:43;;;;;;;22.87;12.18;;;;;;;15.22;30.88;101167.81;1806526;79;21441;-61
2021/03/27 16:30:18;;;;;;;31.65;13.60;;;;;;;15.14;31.20;101169.73;1806402;79;21018;-62
2021/03/27 16:33:12;;;;;;;33.45;16.57;;;;;;;15.05;31.07;101165.37;1806380;79;21163;-61
2021/03/27 16:36:16;;;;;;;35.23;15.53;;;;;;;14.97;31.43;101170.58;1806537;79;21159;-62
2021/03/27 16:39:07;;;;;;;32.73;14.95;;;;;;;14.88;31.59;101170.84;1806500;79;21021;-61
2021/03/27 16:42:10;;;;;;;37.42;17.70;;;;;;;14.77;31.85;101169.47;1735698;82;21203;-64
2021/03/27 16:44:49;;;;;;;54.27;24.85;;;;;;;14.69;31.79;101176.84;1681511;82;21184;-61
2021/03/27 16:47:25;;;;;;;41.00;19.57;;;;;;;14.61;32.19;101181.52;1806846;79;21136;-63
2021/03/27 16:50:17;;;;;;;36.68;19.87;;;;;;;14.51;32.64;101189.16;1778618;79;21005;-62
2021/03/27 16:53:15;;;;;;;52.58;20.70;;;;;;;14.42;32.91;101192.66;1807042;79;21559;-62
2021/03/27 16:56:02;;;;;;;42.03;20.62;;;;;;;14.34;32.87;101200.02;1806670;79;21366;-61
2021/03/27 16:59:03;;;;;;;30.62;18.05;;;;;;;14.26;32.73;101209.59;1806778;79;20945;-60
2021/03/27 17:01:43;;;;;;;30.70;18.65;;;;;;;14.22;32.65;101199.72;1735573;82;21022;-62
2021/03/27 17:04:20;;;;;;;35.35;20.85;;;;;;;14.20;32.59;101209.30;1734992;82;20946;-63
2021/03/27 17:07:10;;;;;;;36.63;22.15;;;;;;;14.19;32.99;101208.48;1735633;82;21234;-64
2021/03/27 17:09:45;;;;;;;36.50;22.62;;;;;;;14.19;32.99;101210.37;1708931;82;21041;-62
2021/03/27 17:12:32;;;;;;;35.10;20.23;;;;;;;14.20;33.12;101207.39;1735447;82;21010;-63
2021/03/27 17:15:19;;;;;;;31.85;20.72;;;;;;;14.22;33.29;101216.69;1781229;79;20930;-61
2021/03/27 17:18:06;;;;;;;37.23;21.75;;;;;;;14.22;33.61;101217.51;1806741;79;21029;-62
2021/03/27 17:21:02;;;;;;;33.28;21.05;;;;;;;14.25;33.81;101218.35;1889548;75;28581;-62
2021/03/27 17:23:46;;;;;;;40.80;22.48;;;;;;;14.23;34.15;101210.94;1873196;76;28112;-61
2021/03/27 17:26:55;;;;;;;38.42;21.97;;;;;;;14.15;34.50;101214.20;1838031;77;20994;-61
2021/03/27 17:29:39;;;;;;;39.33;23.62;;;;;;;14.12;34.89;101220.20;1841183;77;21190;-63
2021/03/27 17:32:32;;;;;;;36.13;23.10;;;;;;;14.03;35.28;101223.17;1841073;78;20987;-61
2021/03/27 17:35:18;;;;;;;39.25;24.82;;;;;;;13.97;35.76;101224.24;1840506;78;21118;-63
2021/03/27 17:38:19;;;;;;;39.10;23.60;;;;;;;13.91;36.07;101224.77;1830575;77;21642;-63
2021/03/27 17:41:17;;;;;;;39.58;24.92;;;;;;;13.87;36.60;101233.77;1784768;78;21044;-65
2021/03/27 17:44:14;;;;;;;41.28;24.60;;;;;;;13.76;36.87;101235.62;1833650;78;21380;-61
2021/03/27 17:47:14;;;;;;;42.45;26.82;;;;;;;13.70;37.16;101233.95;1834387;78;21059;-63
2021/03/27 17:50:14;;;;;;;39.08;25.30;;;;;;;13.69;37.38;101233.68;1821018;78;20993;-66
2021/03/27 17:52:51;;;;;;;40.25;25.88;;;;;;;13.65;37.56;101237.48;1827631;77;21128;-70
2021/03/27 17:55:35;;;;;;;42.80;26.85;;;;;;;13.61;37.74;101230.88;1831277;78;21163;-65
2021/03/27 17:58:06;;;;;;;41.05;26.90;;;;;;;13.62;37.84;101241.27;1798895;78;21168;-68
2021/03/27 18:00:58;;;;;;;42.13;26.60;;;;;;;13.56;38.01;101237.69;1827660;78;21555;-65
2021/03/27 18:03:48;;;;;;;44.15;26.60;;;;;;;13.53;38.12;101237.37;1826755;76;21536;-62
2021/03/27 18:06:23;;;;;;;38.65;27.00;;;;;;;13.48;38.32;101237.65;1795411;78;21126;-66
2021/03/27 18:09:03;;;;;;;41.60;25.77;;;;;;;13.42;38.51;101243.32;1785096;79;21161;-67
2021/03/27 18:12:00;;;;;;;36.83;24.90;;;;;;;13.34;38.59;101246.56;1789643;79;21561;-69
2021/03/27 18:14:55;;;;;;;39.42;25.15;;;;;;;13.29;38.78;101250.08;1761761;79;21178;-68
2021/03/27 18:17:44;;;;;;;33.10;24.32;;;;;;;13.22;38.95;101250.27;1782689;79;21109;-66
2021/03/27 18:20:29;;;;;;;40.38;23.27;;;;;;;13.17;39.13;101254.30;1797035;79;21214;-71
2021/03/27 18:23:23;;;;;;;36.13;23.52;;;;;;;13.09;39.29;101246.59;1796954;79;21653;-74
2021/03/27 18:26:12;;;;;;;32.23;22.15;;;;;;;13.05;39.42;101246.00;1799175;79;21169;-63
2021/03/27 18:29:01;;;;;;;33.90;23.00;;;;;;;13.00;39.56;101254.98;1783711;79;21047;-67
2021/03/27 18:32:06;;;;;;;34.27;23.20;;;;;;;12.95;39.61;101253.02;1766660;79;21120;-68
2021/03/27 18:34:52;;;;;;;36.55;22.87;;;;;;;12.89;39.82;101255.42;1797926;79;21143;-68
2021/03/27 18:37:37;;;;;;;33.90;22.55;;;;;;;12.82;40.01;101250.69;1799003;78;20938;-66
2021/03/27 18:40:27;;;;;;;33.70;23.35;;;;;;;12.73;40.17;101255.81;1799029;79;24921;-65
2021/03/27 18:43:02;;;;;;;36.55;22.37;;;;;;;12.64;40.37;101259.26;1797212;79;21076;-70
2021/03/27 18:45:40;;;;;;;32.20;21.60;;;;;;;12.55;40.50;101260.25;1787938;79;21012;-68
2021/03/27 18:48:16;;;;;;;41.28;24.02;;;;;;;12.51;40.65;101263.20;1796931;79;21000;-70
2021/03/27 18:50:59;;;;;;;35.75;23.25;;;;;;;12.49;40.77;101263.19;1798845;79;21024;-66
2021/03/27 18:53:43;;;;;;;38.40;23.65;;;;;;;12.46;40.86;101267.23;1799262;79;21500;-68
2021/03/27 18:56:27;;;;;;;36.50;23.10;;;;;;;12.44;40.96;101271.59;1773283;79;21009;-71
2021/03/27 18:59:28;;;;;;;37.67;23.27;;;;;;;12.37;41.07;101266.06;1798819;78;20935;-68
2021/03/27 19:02:07;;;;;;;35.48;24.47;;;;;;;12.32;41.29;101270.91;1798018;78;20992;-68
2021/03/27 19:05:03;;;;;;;38.45;25.62;;;;;;;12.28;41.38;101277.95;1783011;79;20985;-69
2021/03/27 19:07:42;;;;;;;42.13;25.02;;;;;;;12.24;41.52;101280.07;1810163;78;21188;-71
2021/03/27 19:10:31;;;;;;;37.25;24.47;;;;;;;12.19;41.69;101278.10;1798192;79;21563;-72
2021/03/27 19:13:21;;;;;;;38.53;25.30;;;;;;;12.15;41.78;101276.95;1798192;79;21483;-73
2021/03/27 19:16:11;;;;;;;40.80;24.47;;;;;;;12.08;41.87;101278.51;1798106;79;21175;-67
2021/03/27 19:18:46;;;;;;;36.95;24.63;;;;;;;12.01;42.08;101275.66;1798279;78;20952;-66
2021/03/27 19:21:29;;;;;;;39.05;26.40;;;;;;;11.95;42.20;101282.41;1798225;79;21008;-67
2021/03/27 19:24:05;;;;;;;38.35;24.95;;;;;;;11.92;42.26;101278.02;1792729;79;20910;-68
2021/03/27 19:26:37;;;;;;;41.35;26.80;;;;;;;11.88;42.38;101285.05;1751953;79;20993;-68
2021/03/27 19:29:10;;;;;;;42.48;26.80;;;;;;;11.80;42.43;101276.70;1792186;80;21053;-72
2021/03/27 19:31:42;;;;;;;41.48;25.37;;;;;;;11.76;42.65;101281.55;1788816;78;21056;-71
2021/03/27 19:34:26;;;;;;;40.20;26.73;;;;;;;11.72;42.73;101282.60;1792392;79;22326;-67
2021/03/27 19:37:16;;;;;;;41.40;26.48;;;;;;;11.68;42.77;101280.91;1792127;80;21017;-67
2021/03/27 19:39:57;;;;;;;40.88;26.90;;;;;;;11.66;43.01;101281.70;1791971;78;21120;-70
2021/03/27 19:43:05;;;;;;;41.68;26.20;;;;;;;11.66;42.90;101278.98;1792124;80;20925;-65
2021/03/27 19:45:50;;;;;;;41.98;26.70;;;;;;;11.64;42.90;101285.73;1792282;80;20993;-67
2021/03/27 19:49:01;;;;;;;45.17;27.60;;;;;;;11.59;43.00;101282.40;1792457;80;21517;-68
2021/03/27 19:52:01;;;;;;;39.78;26.20;;;;;;;11.55;43.01;101284.50;1792254;80;21551;-66
2021/03/27 19:55:10;;;;;;;49.25;26.77;;;;;;;11.49;43.17;101291.77;1792221;78;21040;-69
2021/03/27 19:57:56;;;;;;;43.50;27.10;;;;;;;11.48;43.28;101292.03;1792210;80;20894;-67
2021/03/27 20:00:41;;;;;;;37.08;26.20;;;;;;;11.47;43.21;101297.20;1792379;80;21008;-69
2021/03/27 20:03:19;;;;;;;;;;;;;;;11.42;43.24;101287.86;1794840;78;21195;-66
2021/03/27 20:05:57;;;;;;;41.58;25.90;;;;;;;11.41;43.26;101286.76;1792140;78;20133;-67
2021/03/27 20:08:34;;;;;;;38.02;26.80;;;;;;;11.37;43.40;101288.32;1792184;78;21483;-66
2021/03/27 20:11:23;;;;;;;43.00;27.50;;;;;;;11.35;43.37;101292.66;1792073;79;21130;-63
2021/03/27 20:14:21;;;;;;;39.45;27.73;;;;;;;11.33;43.41;101293.42;1792124;80;21032;-68
2021/03/27 20:17:07;;;;;;;44.38;27.62;;;;;;;11.31;43.43;101293.41;1791665;79;22535;-65
2021/03/27 20:19:38;;;;;;;46.48;27.15;;;;;;;11.28;43.44;101290.62;1792128;79;20961;-67
2021/03/27 20:22:33;;;;;;;44.33;28.42;;;;;;;11.25;43.50;101289.73;1792169;80;20942;-66
2021/03/27 20:25:46;;;;;;;43.85;28.30;;;;;;;11.20;43.66;101291.55;1792195;79;21045;-66
2021/03/27 20:28:56;;;;;;;47.67;27.95;;;;;;;11.14;43.76;101287.92;1792283;78;21456;-69
2021/03/27 20:31:47;;;;;;;44.33;26.70;;;;;;;11.09;43.84;101293.27;1792138;78;21364;-66
2021/03/27 20:34:44;;;;;;;40.05;27.65;;;;;;;11.06;43.95;101298.69;1792224;80;20957;-65
2021/03/27 20:37:24;;;;;;;39.25;27.40;;;;;;;11.04;43.97;101301.36;1792100;80;20958;-64
2021/03/27 20:40:26;;;;;;;46.28;29.00;;;;;;;11.01;44.08;101310.03;1788794;80;21012;-64
2021/03/27 20:43:47;;;;;;;41.63;27.15;;;;;;;10.99;44.04;101302.63;1792024;80;21080;-63
2021/03/27 20:46:18;;;;;;;42.13;26.97;;;;;;;10.96;44.09;101303.95;1789903;78;22479;-65
2021/03/27 20:48:57;;;;;;;43.00;28.60;;;;;;;10.91;44.21;101305.22;1792288;79;20953;-62
2021/03/27 20:51:50;;;;;;;;;;;;;;;10.91;44.18;101312.03;1794849;78;20985;-63
2021/03/27 20:54:40;;;;;;;42.23;26.73;;;;;;;10.90;44.18;101319.38;1792300;80;20133;-66
2021/03/27 20:57:22;;;;;;;37.20;25.65;;;;;;;10.88;44.21;101308.42;1789613;78;21047;-65
2021/03/27 21:00:23;;;;;;;42.55;26.73;;;;;;;10.85;44.22;101315.73;1794778;79;21232;-65
2021/03/27 21:03:04;;;;;;;43.02;26.60;;;;;;;10.82;44.24;101312.95;1736187;80;21070;-65
2021/03/27 21:05:49;;;;;;;38.88;25.37;;;;;;;10.82;44.21;101314.84;1718134;82;21052;-65
2021/03/27 21:08:41;;;;;;;41.05;27.15;;;;;;;10.82;44.22;101314.84;1697980;84;21172;-66
2021/03/27 21:11:24;;;;;;;39.83;26.05;;;;;;;10.82;44.20;101311.59;1720465;83;21174;-63
2021/03/27 21:14:08;;;;;;;43.02;27.02;;;;;;;10.85;44.10;101313.83;1720415;82;21178;-64
2021/03/27 21:16:56;;;;;;;42.73;27.20;;;;;;;10.83;44.04;101321.40;1720431;83;20916;-66
2021/03/27 21:20:08;;;;;;;41.40;26.85;;;;;;;10.81;44.03;101323.55;1711878;83;21158;-64
2021/03/27 21:23:23;;;;;;;40.52;25.68;;;;;;;10.80;44.06;101326.52;1720878;82;21521;-63
2021/03/27 21:26:19;;;;;;;38.38;25.82;;;;;;;10.82;44.08;101327.92;1705895;82;21018;-65
2021/03/27 21:29:14;;;;;;;40.63;26.42;;;;;;;10.82;43.96;101325.20;1736928;82;21199;-66
2021/03/27 21:31:44;;;;;;;39.67;26.75;;;;;;;10.82;44.03;101327.09;1736978;82;21594;-65
2021/03/27 21:34:36;;;;;;;42.90;27.20;;;;;;;10.79;44.01;101333.01;1746629;82;21014;-64
2021/03/27 21:37:20;;;;;;;34.20;24.80;;;;;;;10.78;44.17;101338.17;1736962;82;20954;-64
2021/03/27 21:39:58;;;;;;;46.83;26.05;;;;;;;10.77;44.32;101340.61;1736868;81;21080;-65
2021/03/27 21:42:46;;;;;;;53.00;32.67;;;;;;;10.74;44.48;101339.17;1737092;81;21500;-65
2021/03/27 21:45:30;;;;;;;52.08;33.53;;;;;;;10.72;45.04;101339.97;1723065;82;21223;-65
2021/03/27 21:48:31;;;;;;;47.83;32.85;;;;;;;10.67;45.31;101342.59;1737005;82;20911;-65
2021/03/27 21:51:37;;;;;;;47.80;29.20;;;;;;;10.61;45.37;101340.30;1737052;82;21515;-64
2021/03/27 21:54:42;;;;;;;47.98;28.85;;;;;;;10.56;45.30;101342.09;1737074;82;21006;-65
2021/03/27 21:57:24;;;;;;;37.93;25.25;;;;;;;10.46;45.33;101341.88;1736959;82;21272;-63
2021/03/27 22:00:16;;;;;;;45.17;26.90;;;;;;;10.40;45.16;101342.31;1736945;81;21014;-62
2021/03/27 22:03:08;;;;;;;40.45;25.92;;;;;;;10.36;45.17;101341.95;1736975;82;21029;-62
2021/03/27 22:06:05;;;;;;;41.55;26.15;;;;;;;10.35;45.36;101349.00;1736898;81;21061;-63
2021/03/27 22:08:42;;;;;;;37.15;26.48;;;;;;;10.31;45.27;101355.98;1737104;82;21540;-61
2021/03/27 22:11:13;;;;;;;37.88;26.33;;;;;;;10.28;45.30;101353.73;1737178;82;21305;-62
2021/03/27 22:14:14;;;;;;;48.25;29.80;;;;;;;10.25;45.36;101353.69;1722418;82;20974;-62
2021/03/27 22:17:05;;;;;;;43.63;29.50;;;;;;;10.25;45.62;101356.41;1723770;82;21014;-61
2021/03/27 22:19:42;;;;;;;48.75;30.48;;;;;;;10.26;46.11;101364.86;1737107;82;21022;-63
2021/03/27 22:22:40;;;;;;;49.30;31.55;;;;;;;10.22;46.50;101363.64;1736844;82;21038;-63
2021/03/27 22:25:31;;;;;;;;;;;;;;;10.16;46.58;101361.88;1732161;82;21360;-62
2021/03/27 22:28:21;;;;;;;50.70;31.45;;;;;;;10.08;46.84;101360.33;1728789;83;20177;-64
2021/03/27 22:31:10;;;;;;;47.40;30.77;;;;;;;10.00;47.10;101362.59;1728791;82;20955;-61
2021/03/27 22:34:05;;;;;;;41.95;28.12;;;;;;;9.92;47.06;101365.66;1728773;83;20942;-62
2021/03/27 22:36:45;;;;;;;42.80;27.48;;;;;;;9.79;46.80;101359.93;1728280;82;21062;-61
2021/03/27 22:39:31;;;;;;;39.23;27.50;;;;;;;9.70;46.85;101373.56;1728642;82;21222;-63
2021/03/27 22:42:16;;;;;;;42.78;28.00;;;;;;;9.57;46.90;101378.12;1728698;83;21089;-61
2021/03/27 22:44:59;;;;;;;43.80;27.32;;;;;;;9.49;47.09;101374.95;1728935;83;21536;-62
2021/03/27 22:47:46;;;;;;;44.20;26.73;;;;;;;9.44;47.19;101377.00;1727405;82;21065;-61
2021/03/27 22:50:31;;;;;;;44.03;27.15;;;;;;;9.39;47.29;101383.66;1729031;83;21573;-62
2021/03/27 22:53:44;;;;;;;45.80;29.57;;;;;;;9.36;47.42;101380.03;1728956;83;21399;-62
2021/03/27 22:56:27;;;;;;;48.73;28.83;;;;;;;9.29;47.51;101382.86;1728707;82;21560;-62
2021/03/27 22:59:00;;;;;;;41.55;27.25;;;;;;;9.25;47.67;101378.95;1728804;83;20979;-62
2021/03/27 23:01:49;;;;;;;44.50;27.77;;;;;;;9.23;47.80;101382.43;1728847;83;20939;-63
2021/03/27 23:04:40;;;;;;;42.53;27.62;;;;;;;9.21;47.84;101376.92;1728858;83;21105;-61
2021/03/27 23:07:36;;;;;;;49.15;28.47;;;;;;;9.22;47.91;101379.39;1728825;81;21477;-62
2021/03/27 23:10:46;;;;;;;45.28;27.45;;;;;;;9.22;47.95;101368.53;1728880;81;20947;-62
2021/03/27 23:13:23;;;;;;;41.28;26.93;;;;;;;9.19;48.13;101370.91;1728738;83;20958;-63
2021/03/27 23:16:09;;;;;;;47.45;28.32;;;;;;;9.15;48.25;101371.89;1728858;83;21021;-62
2021/03/27 23:18:49;;;;;;;45.90;27.35;;;;;;;9.14;48.48;101374.84;1727994;82;21223;-63
2021/03/27 23:21:34;;;;;;;42.85;28.10;;;;;;;9.10;48.53;101367.67;1728809;83;21262;-63
2021/03/27 23:24:19;;;;;;;45.05;27.70;;;;;;;9.08;48.64;101376.06;1723451;80;21170;-64
2021/03/27 23:27:23;;;;;;;43.60;27.75;;;;;;;8.99;48.64;101369.29;1709977;82;21477;-64
2021/03/27 23:30:06;;;;;;;43.30;28.40;;;;;;;8.90;48.67;101376.62;1711268;82;21136;-64
2021/03/27 23:32:40;;;;;;;44.00;27.02;;;;;;;8.80;48.72;101368.48;1711298;82;21156;-62
2021/03/27 23:35:29;;;;;;;45.50;28.80;;;;;;;8.75;48.79;101368.34;1711348;82;20966;-64
2021/03/27 23:38:05;;;;;;;44.42;27.82;;;;;;;8.75;48.93;101368.34;1711196;82;20950;-64
2021/03/27 23:40:51;;;;;;;50.95;28.92;;;;;;;8.75;49.19;101366.98;1711497;83;21002;-64
2021/03/27 23:43:34;;;;;;;46.05;27.55;;;;;;;8.74;49.54;101368.58;1711141;82;21097;-61
2021/03/27 23:46:29;;;;;;;44.05;27.20;;;;;;;8.72;49.45;101374.77;1711303;83;21030;-62
2021/03/27 23:49:17;;;;;;;42.95;27.98;;;;;;;8.67;49.45;101365.10;1708353;82;21210;-61
2021/03/27 23:51:54;;;;;;;44.35;28.60;;;;;;;8.59;49.50;101362.19;1709660;83;20982;-62
2021/03/27 23:54:31;;;;;;;43.58;28.60;;;;;;;8.53;49.65;101365.28;1711416;82;21595;-62
2021/03/27 23:57:18;;;;;;;41.85;27.73;;;;;;;8.50;49.65;101358.12;1693847;83;21053;-62
